createdAt,value
2017-11-03T00:00:14.559Z,15.40
2017-11-03T00:02:42.060Z,13.60
2017-11-03T00:05:09.509Z,12.90
2017-11-03T00:07:36.992Z,13.60
2017-11-03T00:10:04.486Z,19.70
2017-11-03T00:12:31.942Z,16.63
2017-11-03T00:14:59.399Z,17.13
2017-11-03T00:17:26.880Z,11.60
2017-11-03T00:19:54.341Z,19.30
2017-11-03T00:22:21.795Z,16.90
2017-11-03T00:24:49.304Z,17.67
2017-11-03T00:27:16.825Z,14.53
2017-11-03T00:29:44.277Z,16.57
2017-11-03T00:32:11.759Z,13.23
2017-11-03T00:34:39.219Z,14.60
2017-11-03T00:37:06.700Z,16.53
2017-11-03T00:39:34.173Z,18.20
2017-11-03T00:42:01.649Z,16.67
2017-11-03T00:44:29.120Z,16.20
2017-11-03T00:46:56.628Z,15.63
2017-11-03T00:49:24.119Z,16.53
2017-11-03T00:51:51.592Z,14.30
2017-11-03T00:54:19.915Z,13.47
2017-11-03T00:56:47.414Z,14.57
2017-11-03T00:59:14.924Z,14.40
2017-11-03T01:01:42.427Z,19.30
2017-11-03T01:04:09.899Z,17.13
2017-11-03T01:06:37.373Z,17.50
2017-11-03T01:09:04.876Z,16.17
2017-11-03T01:11:32.435Z,16.37
2017-11-03T01:13:59.941Z,14.93
2017-11-03T01:16:27.449Z,14.80
2017-11-03T01:18:54.952Z,16.83
2017-11-03T01:21:22.428Z,15.10
2017-11-03T01:23:49.917Z,27.17
2017-11-03T01:26:17.386Z,22.10
2017-11-03T01:28:44.933Z,20.33
2017-11-03T01:31:12.416Z,16.50
2017-11-03T01:33:39.882Z,18.20
2017-11-03T01:36:07.347Z,18.00
2017-11-03T01:38:34.857Z,17.93
2017-11-03T01:41:02.316Z,19.23
2017-11-03T01:43:29.935Z,22.30
2017-11-03T01:45:57.421Z,16.47
2017-11-03T01:48:24.872Z,17.20
2017-11-03T01:50:52.352Z,15.47
2017-11-03T01:53:19.828Z,19.33
2017-11-03T01:55:47.285Z,18.30
2017-11-03T01:58:14.747Z,18.13
2017-11-03T02:00:42.256Z,20.53
2017-11-03T02:03:09.731Z,26.97
2017-11-03T02:05:37.219Z,19.43
2017-11-03T02:08:04.725Z,18.40
2017-11-03T02:10:32.200Z,20.80
2017-11-03T02:12:59.682Z,21.50
2017-11-03T02:15:27.155Z,20.40
2017-11-03T02:17:54.627Z,18.87
2017-11-03T02:20:22.102Z,22.77
2017-11-03T02:22:49.587Z,25.70
2017-11-03T02:25:22.864Z,23.40
2017-11-03T02:27:50.341Z,21.40
2017-11-03T02:30:17.811Z,23.10
2017-11-03T02:32:45.274Z,26.90
2017-11-03T02:35:12.761Z,24.13
2017-11-03T02:37:40.279Z,23.43
2017-11-03T02:40:07.752Z,23.50
2017-11-03T02:42:35.258Z,21.63
2017-11-03T02:45:02.717Z,22.90
2017-11-03T02:47:30.182Z,19.80
2017-11-03T02:49:57.650Z,16.77
2017-11-03T02:52:25.133Z,20.33
2017-11-03T02:54:52.593Z,20.20
2017-11-03T02:57:20.073Z,25.83
2017-11-03T02:59:47.536Z,19.73
2017-11-03T03:02:15.023Z,21.70
2017-11-03T03:04:42.512Z,20.47
2017-11-03T03:07:09.961Z,19.00
2017-11-03T03:09:37.788Z,22.40
2017-11-03T03:12:05.290Z,23.90
2017-11-03T03:14:32.751Z,21.80
2017-11-03T03:17:00.211Z,20.53
2017-11-03T03:19:27.783Z,20.67
2017-11-03T03:21:55.252Z,23.30
2017-11-03T03:24:22.707Z,16.93
2017-11-03T03:26:50.214Z,20.67
2017-11-03T03:29:17.688Z,16.67
2017-11-03T03:31:45.187Z,16.60
2017-11-03T03:34:12.688Z,20.93
2017-11-03T03:36:40.163Z,18.27
2017-11-03T03:39:07.629Z,19.70
2017-11-03T03:41:35.100Z,22.17
2017-11-03T03:44:02.575Z,20.00
2017-11-03T03:46:30.042Z,27.27
2017-11-03T03:48:57.556Z,23.50
2017-11-03T03:51:25.057Z,22.70
2017-11-03T03:53:52.529Z,19.90
2017-11-03T03:56:20.509Z,19.50
2017-11-03T03:58:48.033Z,22.33
2017-11-03T04:01:15.489Z,18.13
2017-11-03T04:03:42.960Z,24.00
2017-11-03T04:06:10.419Z,23.40
2017-11-03T04:08:37.889Z,23.63
2017-11-03T04:11:05.381Z,32.17
2017-11-03T04:13:32.868Z,30.50
2017-11-03T04:16:00.356Z,24.30
2017-11-03T04:18:27.841Z,20.80
2017-11-03T04:20:55.299Z,22.73
2017-11-03T04:23:22.757Z,35.70
2017-11-03T04:25:50.246Z,23.73
2017-11-03T04:28:17.733Z,23.50
2017-11-03T04:30:45.209Z,25.57
2017-11-03T04:33:12.686Z,24.20
2017-11-03T04:35:40.169Z,23.43
2017-11-03T04:38:07.637Z,25.33
2017-11-03T04:40:35.096Z,31.83
2017-11-03T04:43:02.549Z,26.80
2017-11-03T04:45:30.015Z,27.77
2017-11-03T04:47:57.532Z,28.70
2017-11-03T04:50:25.012Z,24.87
2017-11-03T04:52:52.482Z,22.87
2017-11-03T04:55:20.055Z,28.87
2017-11-03T04:57:47.524Z,27.90
2017-11-03T05:00:14.987Z,29.20
2017-11-03T05:02:42.465Z,24.93
2017-11-03T05:05:09.961Z,23.17
2017-11-03T05:07:37.433Z,26.33
2017-11-03T05:10:04.912Z,27.37
2017-11-03T05:12:32.365Z,26.03
2017-11-03T05:15:00.787Z,21.27
2017-11-03T05:17:28.271Z,24.73
2017-11-03T05:19:55.755Z,28.20
2017-11-03T05:22:23.233Z,23.03
2017-11-03T05:24:50.703Z,31.27
2017-11-03T05:27:18.180Z,27.73
2017-11-03T05:29:45.637Z,22.83
2017-11-03T05:32:13.118Z,27.50
2017-11-03T05:34:40.582Z,26.97
2017-11-03T05:37:08.068Z,24.90
2017-11-03T05:39:35.565Z,22.50
2017-11-03T05:42:03.038Z,22.60
2017-11-03T05:44:30.494Z,27.27
2017-11-03T05:46:57.981Z,23.73
2017-11-03T05:49:25.465Z,32.93
2017-11-03T05:51:52.973Z,24.50
2017-11-03T05:54:20.478Z,22.93
2017-11-03T05:56:47.986Z,33.73
2017-11-03T05:59:15.439Z,23.17
2017-11-03T06:01:42.950Z,23.43
2017-11-03T06:04:10.430Z,24.33
2017-11-03T06:06:37.894Z,25.10
2017-11-03T06:09:05.377Z,22.87
2017-11-03T06:11:32.840Z,24.90
2017-11-03T06:14:00.317Z,26.90
2017-11-03T06:16:27.793Z,24.43
2017-11-03T06:18:55.265Z,25.27
2017-11-03T06:21:22.781Z,26.87
2017-11-03T06:23:50.266Z,28.77
2017-11-03T06:26:17.731Z,32.23
2017-11-03T06:28:45.191Z,29.20
2017-11-03T06:31:12.666Z,28.03
2017-11-03T06:33:40.146Z,24.53
2017-11-03T06:36:07.627Z,24.10
2017-11-03T06:38:35.114Z,31.50
2017-11-03T06:41:02.622Z,25.97
2017-11-03T06:43:30.081Z,25.77
2017-11-03T06:45:57.577Z,23.00
2017-11-03T06:48:25.033Z,28.67
2017-11-03T06:50:52.555Z,32.47
2017-11-03T06:53:20.036Z,27.70
2017-11-03T06:55:47.488Z,26.83
2017-11-03T06:58:14.948Z,31.20
2017-11-03T07:00:42.445Z,25.90
2017-11-03T07:03:10.009Z,28.37
2017-11-03T07:05:37.465Z,24.03
2017-11-03T07:08:04.960Z,25.57
2017-11-03T07:10:32.428Z,24.53
2017-11-03T07:12:59.906Z,25.33
2017-11-03T07:15:27.410Z,22.27
2017-11-03T07:17:54.875Z,26.27
2017-11-03T07:20:22.337Z,31.07
2017-11-03T07:22:49.840Z,21.93
2017-11-03T07:25:17.299Z,25.13
2017-11-03T07:27:44.779Z,24.30
2017-11-03T07:30:12.265Z,26.50
2017-11-03T07:32:39.744Z,23.20
2017-11-03T07:35:07.242Z,22.90
2017-11-03T07:37:34.768Z,30.83
2017-11-03T07:40:02.251Z,26.07
2017-11-03T07:42:29.715Z,19.03
2017-11-03T07:44:57.236Z,22.23
2017-11-03T07:47:24.698Z,29.47
2017-11-03T07:49:52.178Z,27.13
2017-11-03T07:52:19.642Z,27.77
2017-11-03T07:54:47.095Z,23.47
2017-11-03T07:57:14.589Z,21.63
2017-11-03T07:59:42.092Z,22.40
2017-11-03T08:02:09.581Z,24.03
2017-11-03T08:04:37.044Z,22.37
2017-11-03T08:07:04.541Z,20.83
2017-11-03T08:09:32.021Z,20.67
2017-11-03T08:11:59.484Z,19.30
2017-11-03T08:14:26.970Z,20.43
2017-11-03T08:16:54.434Z,23.60
2017-11-03T08:19:21.910Z,22.83
2017-11-03T08:21:49.388Z,17.30
2017-11-03T08:24:16.854Z,21.43
2017-11-03T08:26:44.325Z,15.40
2017-11-03T08:29:11.822Z,16.37
2017-11-03T08:31:39.295Z,16.87
2017-11-03T08:34:06.773Z,16.90
2017-11-03T08:36:34.257Z,12.43
2017-11-03T08:39:01.706Z,14.23
2017-11-03T08:41:29.167Z,15.57
2017-11-03T08:43:56.656Z,13.07
2017-11-03T08:46:24.134Z,11.60
2017-11-03T08:48:51.595Z,13.43
2017-11-03T08:51:19.074Z,11.03
2017-11-03T08:53:46.551Z,12.87
2017-11-03T08:56:14.013Z,14.03
2017-11-03T08:58:41.510Z,8.93
2017-11-03T09:01:08.961Z,7.07
2017-11-03T09:03:36.460Z,6.13
2017-11-03T09:06:03.952Z,9.20
2017-11-03T09:08:31.423Z,7.07
2017-11-03T09:10:58.898Z,12.43
2017-11-03T09:13:26.394Z,9.10
2017-11-03T09:15:53.845Z,8.00
2017-11-03T09:18:21.314Z,8.23
2017-11-03T09:20:48.782Z,9.83
2017-11-03T09:23:16.264Z,11.97
2017-11-03T09:25:43.752Z,10.10
2017-11-03T09:28:11.236Z,9.90
2017-11-03T09:30:38.726Z,12.33
2017-11-03T09:33:06.190Z,14.03
2017-11-03T09:35:33.659Z,7.87
2017-11-03T09:38:01.116Z,10.77
2017-11-03T09:40:28.598Z,9.90
2017-11-03T09:42:56.068Z,8.77
2017-11-03T09:45:23.540Z,11.20
2017-11-03T09:47:51.011Z,9.20
2017-11-03T09:50:18.498Z,18.27
2017-11-03T09:52:45.994Z,13.60
2017-11-03T09:55:13.458Z,15.83
2017-11-03T09:57:40.928Z,11.40
2017-11-03T10:00:08.389Z,12.00
2017-11-03T10:02:35.866Z,13.10
2017-11-03T10:05:03.349Z,15.30
2017-11-03T10:07:30.830Z,8.47
2017-11-03T10:09:58.295Z,17.83
2017-11-03T10:12:25.785Z,8.30
2017-11-03T10:14:53.306Z,7.60
2017-11-03T10:17:20.776Z,8.57
2017-11-03T10:19:48.266Z,10.00
2017-11-03T10:22:15.727Z,12.00
2017-11-03T10:24:43.212Z,10.20
2017-11-03T10:27:10.679Z,9.17
2017-11-03T10:29:38.179Z,11.43
2017-11-03T10:32:05.634Z,7.00
2017-11-03T10:34:33.132Z,9.90
2017-11-03T10:37:00.578Z,6.93
2017-11-03T10:39:28.032Z,8.10
2017-11-03T10:41:55.507Z,9.40
2017-11-03T10:44:22.973Z,10.10
2017-11-03T10:46:50.431Z,16.10
2017-11-03T10:49:17.895Z,7.60
2017-11-03T10:51:45.383Z,12.20
2017-11-03T10:54:12.845Z,10.80
2017-11-03T10:56:40.313Z,9.43
2017-11-03T10:59:07.762Z,10.10
2017-11-03T11:01:35.237Z,8.20
2017-11-03T11:04:02.794Z,9.67
2017-11-03T11:06:30.254Z,7.07
2017-11-03T11:08:57.706Z,9.53
2017-11-03T11:11:25.282Z,6.27
2017-11-03T11:13:52.755Z,6.57
2017-11-03T11:16:20.213Z,7.53
2017-11-03T11:18:47.684Z,5.13
2017-11-03T11:21:15.135Z,6.90
2017-11-03T11:23:42.598Z,10.90
2017-11-03T11:26:10.096Z,11.00
2017-11-03T11:28:37.571Z,11.13
2017-11-03T11:31:05.092Z,12.90
2017-11-03T11:33:32.650Z,12.30
2017-11-03T11:36:00.112Z,13.50
2017-11-03T11:38:27.595Z,8.27
2017-11-03T11:40:55.061Z,17.70
2017-11-03T11:43:22.538Z,11.70
2017-11-03T11:45:50.001Z,12.93
2017-11-03T11:48:17.490Z,12.87
2017-11-03T11:50:44.955Z,14.77
2017-11-03T11:53:12.427Z,15.60
2017-11-03T11:55:39.916Z,12.43
2017-11-03T11:58:07.406Z,9.50
2017-11-03T12:00:34.887Z,18.80
2017-11-03T12:03:02.377Z,14.80
2017-11-03T12:05:29.865Z,14.60
2017-11-03T12:07:57.385Z,9.90
2017-11-03T12:10:25.621Z,11.03
2017-11-03T12:12:53.078Z,12.20
2017-11-03T12:15:20.566Z,12.13
2017-11-03T12:17:48.042Z,9.50
2017-11-03T12:20:15.503Z,13.53
2017-11-03T12:22:42.979Z,11.47
2017-11-03T12:25:10.458Z,10.30
2017-11-03T12:27:37.917Z,9.90
2017-11-03T12:30:05.418Z,12.07
2017-11-03T12:32:32.938Z,9.93
2017-11-03T12:35:00.394Z,9.30
2017-11-03T12:37:27.905Z,13.17
2017-11-03T12:39:55.388Z,12.30
2017-11-03T12:42:22.876Z,11.63
2017-11-03T12:44:50.404Z,9.63
2017-11-03T12:47:17.924Z,11.93
2017-11-03T12:49:45.379Z,12.03
2017-11-03T12:52:12.879Z,9.17
2017-11-03T12:54:40.353Z,10.00
2017-11-03T12:57:07.816Z,8.90
2017-11-03T12:59:35.302Z,8.03
2017-11-03T13:02:02.876Z,10.07
2017-11-03T13:04:30.557Z,10.67
2017-11-03T13:06:58.001Z,8.87
2017-11-03T13:09:25.520Z,11.83
2017-11-03T13:11:53.061Z,10.37
2017-11-03T13:14:20.547Z,10.83
2017-11-03T13:16:48.022Z,8.57
2017-11-03T13:19:15.509Z,8.50
2017-11-03T13:21:43.000Z,9.87
2017-11-03T13:24:10.517Z,9.37
2017-11-03T13:26:37.995Z,9.27
2017-11-03T13:29:05.509Z,11.70
2017-11-03T13:31:32.993Z,9.90
2017-11-03T13:34:00.502Z,11.60
2017-11-03T13:36:27.972Z,8.07
2017-11-03T13:38:55.462Z,7.47
2017-11-03T13:41:22.942Z,13.10
2017-11-03T13:43:50.424Z,33.93
2017-11-03T13:46:17.913Z,13.60
2017-11-03T13:48:45.429Z,17.20
2017-11-03T13:51:12.883Z,8.53
2017-11-03T13:53:40.368Z,14.30
2017-11-03T13:56:07.844Z,14.80
2017-11-03T13:58:35.335Z,10.93
2017-11-03T14:01:02.840Z,8.60
2017-11-03T14:03:30.308Z,11.97
2017-11-03T14:05:57.804Z,12.20
2017-11-03T14:08:25.341Z,9.27
2017-11-03T14:10:52.810Z,14.40
2017-11-03T14:13:20.282Z,26.03
2017-11-03T14:15:47.757Z,8.17
2017-11-03T14:18:15.229Z,9.20
2017-11-03T14:20:42.686Z,10.17
2017-11-03T14:23:10.160Z,11.50
2017-11-03T14:25:37.626Z,8.90
2017-11-03T14:28:05.092Z,8.17
2017-11-03T14:30:32.605Z,13.97
2017-11-03T14:33:00.049Z,10.60
2017-11-03T14:35:27.529Z,15.73
2017-11-03T14:37:55.042Z,9.70
2017-11-03T14:40:22.483Z,9.33
2017-11-03T14:42:49.952Z,9.90
2017-11-03T14:45:17.427Z,8.40
2017-11-03T14:47:44.895Z,8.10
2017-11-03T14:50:12.360Z,16.20
2017-11-03T14:52:39.874Z,8.47
2017-11-03T14:55:07.359Z,10.30
2017-11-03T14:57:34.814Z,17.10
2017-11-03T15:00:02.311Z,13.37
2017-11-03T15:02:29.796Z,20.80
2017-11-03T15:04:57.287Z,17.43
2017-11-03T15:07:24.848Z,16.67
2017-11-03T15:09:52.312Z,14.77
2017-11-03T15:12:19.773Z,16.90
2017-11-03T15:14:47.242Z,13.33
2017-11-03T15:19:47.501Z,19.97
2017-11-03T15:22:14.963Z,15.17
2017-11-03T15:24:42.452Z,13.93
2017-11-03T15:27:09.938Z,13.93
2017-11-03T15:29:37.467Z,12.50
2017-11-03T15:32:04.940Z,16.53
2017-11-03T15:34:32.405Z,17.23
2017-11-03T15:36:59.885Z,11.93
2017-11-03T15:39:27.352Z,16.60
2017-11-03T15:41:54.824Z,14.63
2017-11-03T15:44:22.306Z,13.00
2017-11-03T15:46:49.765Z,13.13
2017-11-03T15:49:17.255Z,15.07
2017-11-03T15:51:44.762Z,14.20
2017-11-03T15:54:12.223Z,13.23
2017-11-03T15:56:39.792Z,14.80
2017-11-03T15:59:07.306Z,18.30
2017-11-03T16:01:34.768Z,16.70
2017-11-03T16:04:02.229Z,15.23
2017-11-03T16:06:29.703Z,19.53
2017-11-03T16:08:57.216Z,18.30
2017-11-03T16:11:24.710Z,14.30
2017-11-03T16:13:52.186Z,17.77
2017-11-03T16:16:19.682Z,18.23
2017-11-03T16:18:47.149Z,21.30
2017-11-03T16:21:14.594Z,18.93
2017-11-03T16:23:42.053Z,17.93
2017-11-03T16:26:09.538Z,19.77
2017-11-03T16:28:37.007Z,21.43
2017-11-03T16:31:04.495Z,22.07
2017-11-03T16:33:31.987Z,23.50
2017-11-03T16:35:59.450Z,22.87
2017-11-03T16:38:26.986Z,22.90
2017-11-03T16:40:54.456Z,25.80
2017-11-03T16:43:21.916Z,21.83
2017-11-03T16:45:49.391Z,22.37
2017-11-03T16:48:16.873Z,22.40
2017-11-03T16:50:44.349Z,24.07
2017-11-03T16:53:11.802Z,23.87
2017-11-03T16:55:39.337Z,20.20
2017-11-03T16:58:06.830Z,18.93
2017-11-03T17:00:34.311Z,22.93
2017-11-03T17:03:01.791Z,22.87
2017-11-03T17:05:29.254Z,25.30
2017-11-03T17:07:56.731Z,24.20
2017-11-03T17:10:24.214Z,30.47
2017-11-03T17:12:51.696Z,24.70
2017-11-03T17:15:19.156Z,25.10
2017-11-03T17:17:46.649Z,24.77
2017-11-03T17:20:14.136Z,34.13
2017-11-03T17:22:41.643Z,50.60
2017-11-03T17:25:09.223Z,51.67
2017-11-03T17:27:36.691Z,28.63
2017-11-03T17:30:04.187Z,29.10
2017-11-03T17:32:31.668Z,25.80
2017-11-03T17:34:59.130Z,30.30
2017-11-03T17:37:26.600Z,28.13
2017-11-03T17:39:54.089Z,23.80
2017-11-03T17:42:21.538Z,29.30
2017-11-03T17:44:49.012Z,27.70
2017-11-03T17:47:16.505Z,27.03
2017-11-03T17:49:43.990Z,29.53
2017-11-03T17:52:11.460Z,29.60
2017-11-03T17:54:38.972Z,33.07
2017-11-03T17:57:06.439Z,31.73
2017-11-03T17:59:33.891Z,53.40
2017-11-03T18:02:01.359Z,39.37
2017-11-03T18:04:28.849Z,31.17
2017-11-03T18:06:56.320Z,35.40
2017-11-03T18:09:23.813Z,43.90
2017-11-03T18:11:51.297Z,41.03
2017-11-03T18:14:18.773Z,33.03
2017-11-03T18:16:46.291Z,33.40
2017-11-03T18:19:13.909Z,35.17
2017-11-03T18:21:41.388Z,38.23
2017-11-03T18:24:08.915Z,29.87
2017-11-03T18:26:36.380Z,32.40
2017-11-03T18:29:03.887Z,34.90
2017-11-03T18:31:31.408Z,34.97
2017-11-03T18:33:58.907Z,33.50
2017-11-03T18:36:26.390Z,30.33
2017-11-03T18:38:53.882Z,34.80
2017-11-03T18:41:21.332Z,32.67
2017-11-03T18:43:48.795Z,31.83
2017-11-03T18:46:16.270Z,29.50
2017-11-03T18:48:43.740Z,25.63
2017-11-03T18:51:11.275Z,32.60
2017-11-03T18:53:38.770Z,29.90
2017-11-03T18:56:06.230Z,38.87
2017-11-03T18:58:33.693Z,50.07
2017-11-03T19:01:01.189Z,54.70
2017-11-03T19:03:28.716Z,56.73
2017-11-03T19:05:56.203Z,47.20
2017-11-03T19:08:23.693Z,29.27
2017-11-03T19:10:51.166Z,33.30
2017-11-03T19:13:18.638Z,37.13
2017-11-03T19:15:46.131Z,38.50
2017-11-03T19:18:13.592Z,35.93
2017-11-03T19:20:41.074Z,39.97
2017-11-03T19:23:08.571Z,39.57
2017-11-03T19:25:36.084Z,44.00
2017-11-03T19:28:03.590Z,41.60
2017-11-03T19:30:31.107Z,38.40
2017-11-03T19:32:58.573Z,39.83
2017-11-03T19:35:26.043Z,35.13
2017-11-03T19:37:53.568Z,38.63
2017-11-03T19:40:21.046Z,40.10
2017-11-03T19:42:48.533Z,39.00
2017-11-03T19:45:15.992Z,37.23
2017-11-03T19:47:43.443Z,36.97
2017-11-03T19:50:10.906Z,58.70
2017-11-03T19:52:38.382Z,36.30
2017-11-03T19:55:05.869Z,32.17
2017-11-03T19:57:33.382Z,36.40
2017-11-03T20:00:00.911Z,49.67
2017-11-03T20:02:28.369Z,38.37
2017-11-03T20:04:55.882Z,35.27
2017-11-03T20:07:23.353Z,32.67
2017-11-03T20:09:51.462Z,30.73
2017-11-03T20:12:18.938Z,30.40
2017-11-03T20:14:46.484Z,33.87
2017-11-03T20:17:13.963Z,32.50
2017-11-03T20:19:41.439Z,35.00
2017-11-03T20:22:08.945Z,39.13
2017-11-03T20:24:36.740Z,41.00
2017-11-03T20:27:04.314Z,38.70
2017-11-03T20:29:31.844Z,42.77
2017-11-03T20:31:59.314Z,33.03
2017-11-03T20:34:26.774Z,37.60
2017-11-03T20:36:54.283Z,33.37
2017-11-03T20:39:21.737Z,34.83
2017-11-03T20:41:49.293Z,37.03
2017-11-03T20:44:16.809Z,37.80
2017-11-03T20:46:44.328Z,42.43
2017-11-03T20:49:11.804Z,39.70
2017-11-03T20:51:39.271Z,39.30
2017-11-03T20:54:06.823Z,36.50
2017-11-03T20:56:34.341Z,38.37
2017-11-03T20:59:01.832Z,35.97
2017-11-03T21:01:29.880Z,36.10
2017-11-03T21:03:57.381Z,33.87
2017-11-03T21:06:24.880Z,31.27
2017-11-03T21:08:52.372Z,31.33
2017-11-03T21:11:19.845Z,39.83
2017-11-03T21:13:47.332Z,34.03
2017-11-03T21:16:14.787Z,40.50
2017-11-03T21:18:42.262Z,50.37
2017-11-03T21:21:09.950Z,39.53
2017-11-03T21:23:37.428Z,39.73
2017-11-03T21:26:04.930Z,38.43
2017-11-03T21:28:32.451Z,34.10
2017-11-03T21:30:59.909Z,38.50
2017-11-03T21:33:27.367Z,35.57
2017-11-03T21:35:54.892Z,33.20
2017-11-03T21:38:22.383Z,39.23
2017-11-03T21:40:49.890Z,37.50
2017-11-03T21:43:17.369Z,36.30
2017-11-03T21:45:44.840Z,33.87
2017-11-03T21:48:12.324Z,32.60
2017-11-03T21:50:39.794Z,42.00
2017-11-03T21:53:07.348Z,43.00
2017-11-03T21:55:34.811Z,42.33
2017-11-03T21:58:02.290Z,42.73
2017-11-03T22:00:29.796Z,39.57
2017-11-03T22:02:57.292Z,45.43
2017-11-03T22:05:24.985Z,39.43
2017-11-03T22:07:52.436Z,40.00
2017-11-03T22:10:20.173Z,35.30
2017-11-03T22:12:47.669Z,47.83
2017-11-03T22:15:15.145Z,51.10
2017-11-03T22:17:42.620Z,36.00
2017-11-03T22:20:10.089Z,37.87
2017-11-03T22:22:37.568Z,39.93
2017-11-03T22:25:05.146Z,40.03
2017-11-03T22:27:32.709Z,43.00
2017-11-03T22:30:00.187Z,36.07
2017-11-03T22:32:27.674Z,49.37
2017-11-03T22:34:55.154Z,44.93
2017-11-03T22:37:22.627Z,45.87
2017-11-03T22:39:50.084Z,38.23
2017-11-03T22:42:17.571Z,37.10
2017-11-03T22:44:45.063Z,39.70
2017-11-03T22:47:12.515Z,36.37
2017-11-03T22:49:40.088Z,38.13
2017-11-03T22:52:07.556Z,40.13
2017-11-03T22:54:35.033Z,40.27
2017-11-03T22:57:02.510Z,37.17
2017-11-03T22:59:30.046Z,41.13
2017-11-03T23:01:57.524Z,39.10
2017-11-03T23:04:25.090Z,40.90
2017-11-03T23:06:52.545Z,39.03
2017-11-03T23:09:20.037Z,34.73
2017-11-03T23:11:47.540Z,33.50
2017-11-03T23:14:15.000Z,37.30
2017-11-03T23:16:42.471Z,39.63
2017-11-03T23:19:09.936Z,32.70
2017-11-03T23:21:37.418Z,39.40
2017-11-03T23:24:04.893Z,33.83
2017-11-03T23:26:32.386Z,39.20
2017-11-03T23:28:59.855Z,39.93
2017-11-03T23:31:27.314Z,35.80
2017-11-03T23:33:54.810Z,36.33
2017-11-03T23:36:22.293Z,42.40
2017-11-03T23:38:49.765Z,45.50
2017-11-03T23:41:17.227Z,35.47
2017-11-03T23:43:44.687Z,39.63
2017-11-03T23:46:12.180Z,43.90
2017-11-03T23:48:40.113Z,49.20
2017-11-03T23:51:07.921Z,43.40
2017-11-03T23:53:35.386Z,40.10
2017-11-03T23:56:02.928Z,38.50
2017-11-03T23:58:30.385Z,38.17
